Sun City, Texas
Current Conditions -  °F | °C
As of 7:50 PM on Friday 21 Nov 2014 (Local Time) from KGTU Reporting Station
Light Rain Light Rain  
Wind Chill: 66°   Ceiling: 600
Heat Index: 66°   Visibility: 10mi
Dew Point: 64°   Wind: 10mph
Humidity: 94%   Direction: 130°SE
Pressure: 30.03"   Gusts: 16mph
Location:  30.6575°N, 97.7523°W
Report Text: KGTU 220150Z 13009G14KT 10SM -RA BKN006 OVC014 19/18 A3003
Loading
Personal Weather Stations






























Interactive Weather Map New forecast layout! Learn more

10-Day Weather Forecast

Advertisements
Track Severe Weather on mobile